Alpine, Indiana
Current Conditions -  °F | °C
As of 7:55 PM on Sunday 23 Nov 2014 (Local Time) from KI67 Reporting Station
Overcast Overcast  
Wind Chill: 55°   Ceiling: 1300
Heat Index: 55°   Visibility: 5mi
Dew Point: 52°   Wind: 14mph
Humidity: 88%   Direction: 160°SSE
Pressure: 29.4"   Gusts: 22mph
Location:  39.645°N, 85.1744°W
Report Text: KI67 240055Z AUTO 16012G19KT 5SM OVC013 13/11 A2940 RMK AO1 P0025
Loading
Personal Weather Stations






























Interactive Weather Map New forecast layout! Learn more

10-Day Weather Forecast

Advertisements
Track Severe Weather on mobile